Time;durP1;ratioP1;P1;durP2;ratioP2;P2;SDS_P1;SDS_P2;PMS_P1;PMS_P2;Temp;Humidity;BMP_temperature;BMP_pressure;BME280_temperature;BME280_humidity;BME280_pressure;Samples;Min_cycle;Max_cycle;Signal;HPM_P1;HPM_P2
2023/01/03 00:00:16;;;;;;;;;;;8.30;87.90;;;;;;5042773;28;20004;-82
2023/01/03 00:03:04;;;;;;;;;;;8.40;81.70;;;;;;5034184;28;19909;-82
2023/01/03 00:08:33;;;;;;;;;;;8.50;73.20;;;;;;5037517;28;19971;-82
2023/01/03 00:11:09;;;;;;;;;;;8.50;69.20;;;;;;5067292;28;20360;-82
2023/01/03 00:13:58;;;;;;;;;;;8.50;66.80;;;;;;5051477;28;20249;-82
2023/01/03 00:19:46;;;;;;;;;;;8.50;62.50;;;;;;5045439;28;19915;-82
2023/01/03 00:22:12;;;;;;;;;;;8.60;56.60;;;;;;5036683;28;20468;-82
2023/01/03 00:24:52;;;;;;;;;;;8.50;52.50;;;;;;5033513;28;19920;-81
2023/01/03 00:27:28;;;;;;;;;;;8.50;44.70;;;;;;5039991;28;20046;-80
2023/01/03 00:29:58;;;;;;;;;;;8.40;41.60;;;;;;5043391;28;19920;-81
2023/01/03 00:32:28;;;;;;;;;;;8.40;41.70;;;;;;5054291;28;19909;-81
2023/01/03 00:34:58;;;;;;;;;;;8.30;41.60;;;;;;5050087;28;19967;-81
2023/01/03 00:37:34;;;;;;;;;;;8.20;41.30;;;;;;5051188;28;19923;-81
2023/01/03 00:40:10;;;;;;;;;;;8.10;41.30;;;;;;5040779;28;19924;-81
2023/01/03 00:45:28;;;;;;;;;;;8.00;41.20;;;;;;5036737;28;19967;-80
2023/01/03 00:47:54;;;;;;;;;;;7.90;41.10;;;;;;5054095;28;19908;-81
2023/01/03 00:50:40;;;;;;;;;;;7.80;41.20;;;;;;5043370;28;20273;-80
2023/01/03 00:53:10;;;;;;;;;;;7.80;41.10;;;;;;5041703;28;19917;-81
2023/01/03 00:55:47;;;;;;;;;;;7.80;41.00;;;;;;5035269;28;19917;-81
2023/01/03 00:58:16;;;;;;;;;;;7.70;41.20;;;;;;5050861;28;19920;-80
2023/01/03 01:03:46;;;;;;;;;;;7.60;40.80;;;;;;5033854;28;20288;-81
2023/01/03 01:06:18;;;;;;;;;;;7.60;40.70;;;;;;5033840;28;19917;-81
2023/01/03 01:09:10;;;;;;;;;;;7.60;40.80;;;;;;5034202;28;19909;-81
2023/01/03 01:11:40;;;;;;;;;;;7.60;41.00;;;;;;5041150;28;19917;-82
2023/01/03 01:14:19;;;;;;;;;;;7.60;40.80;;;;;;5033807;28;20000;-81
2023/01/03 01:16:51;;;;;;;;;;;7.60;40.80;;;;;;5033838;28;20324;-81
2023/01/03 01:19:52;;;;;;;;;;;7.50;40.70;;;;;;5047795;28;19931;-81
2023/01/03 01:22:22;;;;;;;;;;;7.50;40.70;;;;;;5052253;28;19913;-82
2023/01/03 01:24:58;;;;;;;;;;;7.40;40.60;;;;;;5040402;28;19913;-82
2023/01/03 01:27:34;;;;;;;;;;;7.30;40.60;;;;;;5053296;28;19913;-82
2023/01/03 01:30:00;;;;;;;;;;;7.30;40.60;;;;;;5036922;28;19908;-81
2023/01/03 01:32:29;;;;;;;;;;;7.20;40.70;;;;;;5044229;28;20268;-82
2023/01/03 01:35:04;;;;;;;;;;;7.10;40.40;;;;;;5035969;28;19932;-82
2023/01/03 01:37:46;;;;;;;;;;;7.10;40.40;;;;;;5045081;28;19917;-81
2023/01/03 01:40:22;;;;;;;;;;;7.10;40.40;;;;;;5044416;28;20028;-81
2023/01/03 01:45:51;;;;;;;;;;;7.20;40.50;;;;;;5050620;28;20426;-82
2023/01/03 01:48:22;;;;;;;;;;;7.20;40.40;;;;;;5052777;28;19912;-82
2023/01/03 01:51:07;;;;;;;;;;;7.20;40.70;;;;;;5060386;28;19916;-82
2023/01/03 01:53:52;;;;;;;;;;;7.30;40.60;;;;;;5048255;28;20349;-82
2023/01/03 01:56:25;;;;;;;;;;;7.30;40.60;;;;;;5045421;28;19960;-82
2023/01/03 01:58:59;;;;;;;;;;;7.40;40.70;;;;;;5047937;28;19915;-81
2023/01/03 02:01:25;;;;;;;;;;;7.40;40.90;;;;;;5055839;28;20352;-82
2023/01/03 02:04:06;;;;;;;;;;;7.50;40.70;;;;;;5051684;28;19963;-82
2023/01/03 02:06:40;;;;;;;;;;;7.60;40.80;;;;;;5035763;28;19960;-82
2023/01/03 02:15:09;;;;;;;;;;;7.50;40.60;;;;;;5051977;28;20004;-82
2023/01/03 02:17:52;;;;;;;;;;;7.60;40.80;;;;;;5045105;28;19909;-82
2023/01/03 02:20:27;;;;;;;;;;;7.60;41.00;;;;;;5036977;28;20288;-82
2023/01/03 02:26:04;;;;;;;;;;;7.40;40.70;;;;;;5048968;28;19967;-81
2023/01/03 02:29:04;;;;;;;;;;;7.40;40.80;;;;;;5051551;28;19939;-81
2023/01/03 02:31:34;;;;;;;;;;;7.40;40.60;;;;;;5041482;28;19920;-82
2023/01/03 02:34:11;;;;;;;;;;;7.30;40.50;;;;;;5043813;28;20296;-81
2023/01/03 02:36:46;;;;;;;;;;;7.20;40.50;;;;;;5073181;28;20276;-82
2023/01/03 02:45:34;;;;;;;;;;;6.90;40.10;;;;;;5055343;28;20348;-80
2023/01/03 02:48:22;;;;;;;;;;;6.90;40.30;;;;;;5048120;28;19913;-80
2023/01/03 02:50:50;;;;;;;;;;;6.80;40.10;;;;;;5043168;28;19917;-81
2023/01/03 02:53:26;;;;;;;;;;;6.80;40.10;;;;;;5042922;28;20422;-81
2023/01/03 02:59:00;;;;;;;;;;;6.70;40.10;;;;;;5036401;28;20009;-80
2023/01/03 03:01:29;;;;;;;;;;;6.70;40.00;;;;;;5055896;28;19909;-80
2023/01/03 03:04:12;;;;;;;;;;;6.70;40.00;;;;;;5055995;28;20011;-81
2023/01/03 03:06:53;;;;;;;;;;;6.60;40.10;;;;;;5047946;28;20003;-81
2023/01/03 03:09:29;;;;;;;;;;;6.70;40.10;;;;;;5049394;28;20262;-80
2023/01/03 03:15:10;;;;;;;;;;;6.60;40.00;;;;;;5036447;28;19915;-81
2023/01/03 03:17:37;;;;;;;;;;;6.60;40.00;;;;;;5049438;28;19911;-81
2023/01/03 03:26:17;;;;;;;;;;;6.40;39.80;;;;;;5042551;28;19926;-80
2023/01/03 03:34:49;;;;;;;;;;;6.20;39.60;;;;;;5044882;28;20006;-82
2023/01/03 03:46:28;;;;;;;;;;;5.90;39.40;;;;;;5057964;28;20019;-82
2023/01/03 03:54:55;;;;;;;;;;;5.70;39.30;;;;;;5054828;28;19958;-81
2023/01/03 03:57:34;;;;;;;;;;;5.80;39.40;;;;;;5052086;28;19952;-80
2023/01/03 04:00:18;;;;;;;;;;;5.70;39.20;;;;;;5034862;28;20369;-80
2023/01/03 04:05:55;;;;;;;;;;;5.60;39.10;;;;;;5047660;28;19919;-80
2023/01/03 04:08:23;;;;;;;;;;;5.50;39.00;;;;;;5053428;28;19909;-80
2023/01/03 04:11:04;;;;;;;;;;;5.50;39.10;;;;;;5043900;28;19916;-80
2023/01/03 04:13:58;;;;;;;;;;;5.40;39.00;;;;;;5035381;28;19913;-81
2023/01/03 04:16:28;;;;;;;;;;;5.40;39.10;;;;;;5034730;28;19956;-81
2023/01/03 04:19:10;;;;;;;;;;;5.30;38.90;;;;;;5051768;28;19952;-81
2023/01/03 04:21:46;;;;;;;;;;;5.20;39.00;;;;;;5054193;28;19917;-81
2023/01/03 04:24:22;;;;;;;;;;;5.20;38.80;;;;;;5039849;28;20503;-81
2023/01/03 04:29:52;;;;;;;;;;;5.20;38.80;;;;;;5047833;28;19927;-80
2023/01/03 04:32:18;;;;;;;;;;;5.20;38.70;;;;;;5033149;28;20007;-80
2023/01/03 04:34:58;;;;;;;;;;;5.10;38.80;;;;;;5037644;28;19960;-81
2023/01/03 04:37:28;;;;;;;;;;;5.10;38.70;;;;;;5034444;28;20011;-80
2023/01/03 04:40:10;;;;;;;;;;;5.10;41.70;;;;;;5045884;28;19965;-80
2023/01/03 04:45:20;;;;;;;;;;;4.90;46.00;;;;;;5034312;28;19923;-80
2023/01/03 04:47:46;;;;;;;;;;;4.90;44.50;;;;;;5044957;28;20288;-80
2023/01/03 04:50:22;;;;;;;;;;;4.80;52.00;;;;;;5033089;28;19909;-80
2023/01/03 04:52:48;;;;;;;;;;;4.80;54.30;;;;;;5038843;28;19917;-81
2023/01/03 04:55:16;;;;;;;;;;;4.80;57.10;;;;;;5035511;28;20024;-80
2023/01/03 04:57:59;;;;;;;;;;;4.70;54.90;;;;;;5062383;28;19913;-81
2023/01/03 05:00:25;;;;;;;;;;;4.80;54.20;;;;;;5034108;28;19960;-81
2023/01/03 05:06:16;;;;;;;;;;;4.70;51.00;;;;;;5033905;28;20067;-81
2023/01/03 05:08:46;;;;;;;;;;;4.60;49.70;;;;;;5047670;28;20352;-81
2023/01/03 05:11:40;;;;;;;;;;;4.60;54.90;;;;;;5045006;28;19973;-81
2023/01/03 05:14:22;;;;;;;;;;;4.60;57.40;;;;;;5046957;28;19917;-80
2023/01/03 05:16:58;;;;;;;;;;;4.60;58.50;;;;;;5035335;28;19924;-80
2023/01/03 05:28:34;;;;;;;;;;;4.40;60.40;;;;;;5051381;28;20391;-80
2023/01/03 05:31:04;;;;;;;;;;;4.40;59.10;;;;;;5041280;28;19909;-80
2023/01/03 05:36:40;;;;;;;;;;;4.30;62.30;;;;;;5045274;28;19970;-80
2023/01/03 05:39:06;;;;;;;;;;;4.30;59.10;;;;;;5035336;28;19917;-80
2023/01/03 05:44:23;;;;;;;;;;;4.20;59.60;;;;;;5034060;28;20013;-81
2023/01/03 05:46:59;;;;;;;;;;;4.20;58.80;;;;;;5041496;28;20015;-80
2023/01/03 05:52:28;;;;;;;;;;;4.00;55.70;;;;;;5033815;28;19916;-90
2023/01/03 05:54:58;;;;;;;;;;;4.00;56.60;;;;;;5040988;28;19909;-84
2023/01/03 05:57:24;;;;;;;;;;;4.00;62.20;;;;;;5049594;28;19955;-81
2023/01/03 06:00:04;;;;;;;;;;;4.10;66.60;;;;;;5034457;28;20003;-82
2023/01/03 06:02:40;;;;;;;;;;;4.00;66.80;;;;;;5049503;28;20027;-74
2023/01/03 06:05:06;;;;;;;;;;;4.00;64.20;;;;;;5036323;28;19913;-74
2023/01/03 06:07:36;;;;;;;;;;;4.00;64.20;;;;;;5043592;28;19936;-77
2023/01/03 06:10:05;;;;;;;;;;;3.90;63.50;;;;;;5053117;28;20275;-75
2023/01/03 06:12:30;;;;;;;;;;;3.90;63.30;;;;;;5034138;28;20361;-76
2023/01/03 06:14:58;;;;;;;;;;;3.90;64.50;;;;;;5047078;28;19935;-79
2023/01/03 06:17:58;;;;;;;;;;;3.90;62.90;;;;;;5041859;28;19920;-76
2023/01/03 06:20:28;;;;;;;;;;;3.90;69.40;;;;;;5037818;28;19923;-76
2023/01/03 06:23:05;;;;;;;;;;;3.90;65.80;;;;;;5041321;28;19908;-76
2023/01/03 06:25:35;;;;;;;;;;;3.90;66.90;;;;;;5037209;28;19928;-75
2023/01/03 06:28:00;;;;;;;;;;;3.90;67.50;;;;;;5050830;28;19913;-81
2023/01/03 06:30:46;;;;;;;;;;;3.90;67.30;;;;;;5049505;28;19916;-76
2023/01/03 06:33:17;;;;;;;;;;;3.80;71.20;;;;;;5036903;28;19917;-77
2023/01/03 06:35:42;;;;;;;;;;;3.90;73.20;;;;;;5053522;28;19913;-76
2023/01/03 06:38:11;;;;;;;;;;;3.90;71.20;;;;;;5054565;28;20293;-76
2023/01/03 06:40:36;;;;;;;;;;;3.90;72.00;;;;;;5044430;28;19998;-76
2023/01/03 06:43:22;;;;;;;;;;;3.90;72.00;;;;;;5046102;28;19917;-76
2023/01/03 06:54:07;;;;;;;;;;;3.90;72.30;;;;;;5062514;28;19967;-74
2023/01/03 06:56:33;;;;;;;;;;;3.90;72.30;;;;;;5036516;28;19910;-74
2023/01/03 06:59:22;;;;;;;;;;;3.80;73.30;;;;;;5054429;28;21343;-79
2023/01/03 07:01:59;;;;;;;;;;;3.90;76.00;;;;;;5076266;28;19916;-79
2023/01/03 07:04:35;;;;;;;;;;;3.90;77.50;;;;;;5060329;28;19927;-79
2023/01/03 07:07:04;;;;;;;;;;;3.90;78.10;;;;;;5054479;28;19959;-80
2023/01/03 07:09:52;;;;;;;;;;;3.90;78.70;;;;;;5036337;28;19909;-79
2023/01/03 07:15:07;;;;;;;;;;;3.90;77.90;;;;;;5039972;28;19919;-70
2023/01/03 07:17:33;;;;;;;;;;;3.90;82.10;;;;;;5047062;28;20303;-70
2023/01/03 07:19:58;;;;;;;;;;;4.00;87.50;;;;;;5046728;28;19923;-70
2023/01/03 07:22:24;;;;;;;;;;;4.00;90.30;;;;;;5039371;28;19913;-70
2023/01/03 07:24:50;;;;;;;;;;;4.00;90.90;;;;;;5041198;28;20295;-70
2023/01/03 07:27:15;;;;;;;;;;;4.10;91.90;;;;;;5041096;28;20293;-70
2023/01/03 07:29:41;;;;;;;;;;;4.10;91.30;;;;;;5051240;28;19920;-70
2023/01/03 07:32:06;;;;;;;;;;;4.10;91.70;;;;;;5035414;28;20070;-70
2023/01/03 07:34:32;;;;;;;;;;;4.10;91.10;;;;;;5039371;28;20316;-70
2023/01/03 07:36:58;;;;;;;;;;;4.10;90.70;;;;;;5035528;28;19983;-70
2023/01/03 07:39:41;;;;;;;;;;;4.10;87.90;;;;;;5038121;28;20289;-81
2023/01/03 07:45:05;;;;;;;;;;;4.10;85.70;;;;;;5036669;28;19959;-81
2023/01/03 07:48:04;;;;;;;;;;;4.10;85.60;;;;;;5035940;28;20269;-80
2023/01/03 07:50:58;;;;;;;;;;;4.10;82.40;;;;;;5040571;28;19919;-80
2023/01/03 07:53:29;;;;;;;;;;;4.10;82.30;;;;;;5043045;28;19909;-81
2023/01/03 07:56:24;;;;;;;;;;;4.10;79.80;;;;;;5039372;28;19910;-80
2023/01/03 07:58:51;;;;;;;;;;;4.10;76.60;;;;;;5039270;28;20351;-80
2023/01/03 08:01:29;;;;;;;;;;;4.10;72.50;;;;;;5025884;28;20392;-80
2023/01/03 08:03:59;;;;;;;;;;;4.10;71.50;;;;;;5044861;28;20314;-80
2023/01/03 08:06:24;;;;;;;;;;;4.10;75.00;;;;;;5047334;28;19913;-75
2023/01/03 08:14:53;;;;;;;;;;;4.10;65.80;;;;;;5046603;28;19928;-75
2023/01/03 08:17:29;;;;;;;;;;;4.00;69.30;;;;;;5037064;28;19920;-75
2023/01/03 08:19:59;;;;;;;;;;;4.10;73.60;;;;;;5035555;28;19913;-75
2023/01/03 08:22:29;;;;;;;;;;;4.10;74.80;;;;;;5051711;28;20030;-75
2023/01/03 08:24:54;;;;;;;;;;;4.10;75.90;;;;;;5044130;28;19909;-75
2023/01/03 08:27:20;;;;;;;;;;;4.10;76.30;;;;;;5045268;28;19925;-75
2023/01/03 08:33:07;;;;;;;;;;;4.10;74.70;;;;;;5051484;28;19924;-80
2023/01/03 08:35:35;;;;;;;;;;;4.20;73.90;;;;;;5045927;28;20400;-80
2023/01/03 08:38:12;;;;;;;;;;;4.20;76.30;;;;;;5045866;28;19918;-81
2023/01/03 08:43:42;;;;;;;;;;;4.30;87.10;;;;;;5054203;28;19935;-80
2023/01/03 08:46:12;;;;;;;;;;;4.40;90.00;;;;;;5045423;28;19991;-81
2023/01/03 08:48:41;;;;;;;;;;;4.50;90.10;;;;;;5059889;28;19919;-81
2023/01/03 08:57:12;;;;;;;;;;;4.70;93.10;;;;;;5048660;28;19978;-81
2023/01/03 08:59:38;;;;;;;;;;;4.80;95.40;;;;;;5053793;28;19917;-74
2023/01/03 09:02:05;;;;;;;;;;;4.90;96.50;;;;;;5045604;28;20364;-75
2023/01/03 09:04:30;;;;;;;;;;;5.00;97.10;;;;;;5034041;28;19919;-75
2023/01/03 09:06:56;;;;;;;;;;;5.10;97.10;;;;;;5050110;28;20023;-75
2023/01/03 09:09:46;;;;;;;;;;;5.20;97.60;;;;;;5049460;28;19940;-75
2023/01/03 09:12:23;;;;;;;;;;;5.30;98.30;;;;;;5045163;28;19913;-75
2023/01/03 09:14:52;;;;;;;;;;;5.30;99.60;;;;;;5034391;28;19913;-78
2023/01/03 09:17:18;;;;;;;;;;;5.50;99.90;;;;;;5035918;28;19960;-75
2023/01/03 09:19:47;;;;;;;;;;;5.60;99.90;;;;;;5043280;28;20331;-75
2023/01/03 09:22:12;;;;;;;;;;;5.70;99.90;;;;;;5046160;28;19913;-75
2023/01/03 09:24:41;;;;;;;;;;;5.70;99.90;;;;;;5047133;28;19916;-75
2023/01/03 09:27:11;;;;;;;;;;;5.80;99.90;;;;;;5041829;28;19921;-75
2023/01/03 09:29:36;;;;;;;;;;;5.90;99.90;;;;;;5041366;28;20007;-76
2023/01/03 09:32:05;;;;;;;;;;;5.90;99.90;;;;;;5041652;28;19991;-75
2023/01/03 09:34:30;;;;;;;;;;;6.00;99.90;;;;;;5041786;28;19920;-76
2023/01/03 09:36:56;;;;;;;;;;;6.10;99.90;;;;;;5035826;28;19921;-76
2023/01/03 09:39:22;;;;;;;;;;;6.20;99.90;;;;;;5035234;28;19960;-76
2023/01/03 09:44:59;;;;;;;;;;;6.40;99.90;;;;;;5043544;28;19920;-75
2023/01/03 09:47:52;;;;;;;;;;;6.40;99.90;;;;;;5033941;28;19917;-81
2023/01/03 09:50:25;;;;;;;;;;;6.50;99.90;;;;;;5044109;28;19960;-81
2023/01/03 10:04:44;;;;;;;;;;;6.80;99.90;;;;;;5036957;28;19920;-75
2023/01/03 10:07:10;;;;;;;;;;;6.90;98.90;;;;;;5034205;28;20307;-77
2023/01/03 10:09:35;;;;;;;;;;;6.90;99.00;;;;;;5035171;28;20047;-75
2023/01/03 10:12:09;;;;;;;;;;;7.00;98.60;;;;;;5026823;28;19920;-76
2023/01/03 10:14:37;;;;;;;;;;;7.00;95.80;;;;;;5034288;28;19913;-76
2023/01/03 10:17:06;;;;;;;;;;;7.00;95.90;;;;;;5035290;28;20422;-76
2023/01/03 10:19:43;;;;;;;;;;;7.10;93.80;;;;;;5034926;28;20285;-76
2023/01/03 10:22:13;;;;;;;;;;;7.10;92.40;;;;;;5031869;28;19998;-75
2023/01/03 10:24:49;;;;;;;;;;;7.20;90.40;;;;;;5048135;28;19917;-75
2023/01/03 10:27:20;;;;;;;;;;;7.30;88.70;;;;;;5034020;28;20020;-75
2023/01/03 10:29:48;;;;;;;;;;;7.40;83.50;;;;;;5034567;28;19916;-75
2023/01/03 10:32:23;;;;;;;;;;;7.50;78.30;;;;;;5030592;28;20216;-81
2023/01/03 10:37:52;;;;;;;;;;;7.60;66.00;;;;;;5036371;28;19967;-81
2023/01/03 10:40:34;;;;;;;;;;;7.70;51.90;;;;;;5047602;28;19917;-81
2023/01/03 10:43:06;;;;;;;;;;;7.80;51.70;;;;;;5038950;28;19924;-81
2023/01/03 10:45:33;;;;;;;;;;;7.80;44.80;;;;;;5036357;28;19964;-80
2023/01/03 10:47:59;;;;;;;;;;;7.90;47.70;;;;;;5036663;28;19975;-74
2023/01/03 10:50:26;;;;;;;;;;;8.00;41.20;;;;;;5051696;28;19913;-74
2023/01/03 10:52:56;;;;;;;;;;;8.10;41.30;;;;;;5063870;28;19908;-74
2023/01/03 10:55:24;;;;;;;;;;;8.30;41.40;;;;;;5039909;28;20047;-74
2023/01/03 10:57:59;;;;;;;;;;;8.30;41.40;;;;;;5046906;28;19949;-74
2023/01/03 11:00:29;;;;;;;;;;;8.40;41.50;;;;;;5050085;28;19995;-74
2023/01/03 11:03:17;;;;;;;;;;;8.60;41.70;;;;;;5048061;28;19913;-78
2023/01/03 11:05:44;;;;;;;;;;;8.70;14.00;;;;;;5036859;28;19961;-79
2023/01/03 11:08:14;;;;;;;;;;;8.70;13.00;;;;;;5044931;28;19916;-78
2023/01/03 11:11:05;;;;;;;;;;;8.80;9.20;;;;;;5062507;28;19909;-79
2023/01/03 11:13:42;;;;;;;;;;;8.90;3.30;;;;;;5043145;28;19916;-79
2023/01/03 11:16:41;;;;;;;;;;;9.00;1.60;;;;;;5047308;28;20261;-78
2023/01/03 11:19:15;;;;;;;;;;;9.20;1.00;;;;;;5049209;28;19920;-78
2023/01/03 11:21:43;;;;;;;;;;;9.20;1.00;;;;;;5044915;28;19917;-79
2023/01/03 11:24:15;;;;;;;;;;;9.30;1.00;;;;;;5035716;28;20257;-81
2023/01/03 11:27:17;;;;;;;;;;;9.60;1.00;;;;;;5045981;28;19948;-81
2023/01/03 11:29:42;;;;;;;;;;;9.60;1.00;;;;;;5045386;28;19913;-81
2023/01/03 11:32:23;;;;;;;;;;;9.60;1.00;;;;;;5036123;28;20052;-76
2023/01/03 11:35:08;;;;;;;;;;;9.60;1.00;;;;;;5034296;28;19933;-75
2023/01/03 11:37:39;;;;;;;;;;;9.60;1.00;;;;;;5048939;28;19917;-75
2023/01/03 11:40:11;;;;;;;;;;;9.60;1.00;;;;;;5041192;28;20276;-75
2023/01/03 11:42:56;;;;;;;;;;;9.60;1.00;;;;;;5044629;28;19909;-76
2023/01/03 11:45:40;;;;;;;;;;;9.70;1.00;;;;;;5049786;28;19915;-75
2023/01/03 11:51:08;;;;;;;;;;;9.90;1.00;;;;;;5049158;28;19935;-82
2023/01/03 11:53:36;;;;;;;;;;;10.10;1.00;;;;;;5043428;28;19909;-81
2023/01/03 11:56:35;;;;;;;;;;;10.00;1.00;;;;;;5054994;28;19909;-81
2023/01/03 12:02:29;;;;;;;;;;;9.90;1.00;;;;;;5055077;28;19916;-81
2023/01/03 12:05:06;;;;;;;;;;;10.10;1.00;;;;;;5034824;28;20007;-81
2023/01/03 12:07:59;;;;;;;;;;;10.20;1.00;;;;;;5064726;28;19916;-81
2023/01/03 12:10:47;;;;;;;;;;;10.40;1.00;;;;;;5054602;28;19909;-81
2023/01/03 12:13:17;;;;;;;;;;;10.50;1.00;;;;;;5045035;28;19908;-81
2023/01/03 12:18:50;;;;;;;;;;;10.70;1.00;;;;;;5048025;28;19955;-75
2023/01/03 12:21:28;;;;;;;;;;;10.60;1.00;;;;;;5034541;28;20333;-75
2023/01/03 12:24:05;;;;;;;;;;;10.50;1.00;;;;;;5066273;28;19909;-76
2023/01/03 12:26:51;;;;;;;;;;;10.50;1.00;;;;;;5041445;28;19913;-74
2023/01/03 12:29:23;;;;;;;;;;;10.40;1.00;;;;;;5048981;28;19948;-75
2023/01/03 12:31:59;;;;;;;;;;;10.30;1.00;;;;;;5041545;28;19913;-81
2023/01/03 12:34:38;;;;;;;;;;;10.40;1.00;;;;;;5054556;28;20271;-81
2023/01/03 12:37:15;;;;;;;;;;;10.50;1.00;;;;;;5043337;28;20330;-81
2023/01/03 12:39:53;;;;;;;;;;;10.50;1.00;;;;;;5048128;28;19913;-81
2023/01/03 12:42:38;;;;;;;;;;;10.50;1.00;;;;;;5046190;28;20381;-81
2023/01/03 12:45:22;;;;;;;;;;;10.50;1.00;;;;;;5042096;28;19958;-81
2023/01/03 12:48:00;;;;;;;;;;;10.30;1.00;;;;;;5051926;28;19913;-75
2023/01/03 12:50:29;;;;;;;;;;;10.30;1.00;;;;;;5043535;28;19916;-74
2023/01/03 12:53:17;;;;;;;;;;;10.30;1.00;;;;;;5037587;28;19941;-75
2023/01/03 12:56:10;;;;;;;;;;;10.20;1.00;;;;;;5044637;28;19952;-76
2023/01/03 12:58:49;;;;;;;;;;;10.20;1.00;;;;;;5050233;28;19908;-75
2023/01/03 13:01:27;;;;;;;;;;;10.40;1.00;;;;;;5058475;28;19909;-74
2023/01/03 13:03:55;;;;;;;;;;;10.50;1.00;;;;;;5060991;28;19915;-81
2023/01/03 13:06:24;;;;;;;;;;;10.60;1.00;;;;;;5040008;28;19964;-81
2023/01/03 13:09:03;;;;;;;;;;;10.50;1.00;;;;;;5034409;28;19913;-81
2023/01/03 13:15:01;;;;;;;;;;;10.50;1.00;;;;;;5041075;28;19963;-77
2023/01/03 13:17:30;;;;;;;;;;;10.70;1.00;;;;;;5010512;28;20345;-79
2023/01/03 13:19:59;;;;;;;;;;;10.50;1.00;;;;;;5011889;28;20377;-78
2023/01/03 13:22:48;;;;;;;;;;;10.60;1.00;;;;;;5012086;28;19910;-77
2023/01/03 13:25:31;;;;;;;;;;;10.70;1.00;;;;;;5011583;28;19988;-78
2023/01/03 13:28:25;;;;;;;;;;;10.70;1.00;;;;;;5011870;28;19909;-78
2023/01/03 13:31:15;;;;;;;;;;;10.80;1.00;;;;;;4934237;29;20276;-77
2023/01/03 13:33:52;;;;;;;;;;;10.80;1.00;;;;;;4915746;29;19911;-77
2023/01/03 13:36:18;;;;;;;;;;;11.00;1.00;;;;;;4921842;29;19923;-77
2023/01/03 13:38:44;;;;;;;;;;;11.20;1.00;;;;;;4920297;29;19915;-78
2023/01/03 13:41:35;;;;;;;;;;;11.20;1.00;;;;;;4922920;29;20003;-77
2023/01/03 13:44:29;;;;;;;;;;;11.30;1.00;;;;;;4913819;29;19919;-77
2023/01/03 13:47:05;;;;;;;;;;;11.30;1.00;;;;;;4925360;29;20412;-77
2023/01/03 13:49:31;;;;;;;;;;;11.20;1.00;;;;;;4920255;29;19915;-73
2023/01/03 13:51:57;;;;;;;;;;;11.10;1.00;;;;;;4918978;29;19998;-73
2023/01/03 13:54:25;;;;;;;;;;;11.00;1.00;;;;;;4929246;29;19915;-73
2023/01/03 13:56:53;;;;;;;;;;;11.10;1.00;;;;;;4931170;29;19998;-73
2023/01/03 13:59:46;;;;;;;;;;;11.10;1.00;;;;;;4920458;29;19923;-73
2023/01/03 14:02:11;;;;;;;;;;;11.10;1.00;;;;;;4926470;29;20413;-73
2023/01/03 14:04:55;;;;;;;;;;;10.90;1.00;;;;;;4929635;29;19918;-73
2023/01/03 14:07:39;;;;;;;;;;;10.90;1.00;;;;;;4941358;28;19914;-74
2023/01/03 14:10:17;;;;;;;;;;;11.00;1.00;;;;;;4982680;28;20004;-73
2023/01/03 14:13:02;;;;;;;;;;;11.00;1.00;;;;;;5052389;28;20314;-73
2023/01/03 14:15:29;;;;;;;;;;;10.80;1.00;;;;;;5064055;28;19939;-73
2023/01/03 14:18:29;;;;;;;;;;;10.90;1.00;;;;;;5049089;28;20307;-78
2023/01/03 14:20:56;;;;;;;;;;;10.90;1.00;;;;;;5049351;28;19921;-81
2023/01/03 14:23:30;;;;;;;;;;;10.80;1.00;;;;;;5040221;28;20552;-81
2023/01/03 14:26:04;;;;;;;;;;;10.70;1.00;;;;;;5041202;28;19965;-81
2023/01/03 14:28:54;;;;;;;;;;;10.60;1.00;;;;;;5036515;28;19960;-81
2023/01/03 14:31:25;;;;;;;;;;;10.70;1.00;;;;;;5036530;28;19921;-81
2023/01/03 14:34:11;;;;;;;;;;;10.60;1.00;;;;;;5051375;28;19916;-82
2023/01/03 14:36:44;;;;;;;;;;;10.60;1.00;;;;;;5044643;28;19959;-82
2023/01/03 14:39:19;;;;;;;;;;;10.60;1.00;;;;;;5047800;28;19921;-75
2023/01/03 14:41:46;;;;;;;;;;;10.50;1.00;;;;;;5052954;28;19935;-75
2023/01/03 14:44:17;;;;;;;;;;;10.40;1.00;;;;;;5054392;28;19913;-74
2023/01/03 14:46:53;;;;;;;;;;;10.40;1.00;;;;;;5042679;28;19932;-75
2023/01/03 14:49:54;;;;;;;;;;;10.40;1.00;;;;;;5045252;28;19960;-81
2023/01/03 14:52:40;;;;;;;;;;;10.30;1.00;;;;;;5043371;28;19913;-82
2023/01/03 14:55:16;;;;;;;;;;;10.20;1.00;;;;;;5035889;28;19909;-81
2023/01/03 14:57:43;;;;;;;;;;;10.20;1.00;;;;;;5038767;28;19910;-82
2023/01/03 15:00:16;;;;;;;;;;;10.20;1.00;;;;;;5049440;28;20350;-81
2023/01/03 15:02:42;;;;;;;;;;;10.20;1.00;;;;;;5047712;28;20009;-80
2023/01/03 15:05:18;;;;;;;;;;;10.10;1.00;;;;;;5046635;28;20422;-80
2023/01/03 15:08:20;;;;;;;;;;;10.10;1.00;;;;;;5036228;28;19921;-81
2023/01/03 15:11:04;;;;;;;;;;;10.10;1.00;;;;;;4987976;28;20297;-79
2023/01/03 15:13:30;;;;;;;;;;;10.10;1.00;;;;;;5007428;28;20408;-81
2023/01/03 15:19:24;;;;;;;;;;;10.20;1.00;;;;;;5013943;28;19996;-80
2023/01/03 15:22:24;;;;;;;;;;;10.00;1.00;;;;;;4997034;28;20381;-80
2023/01/03 15:27:54;;;;;;;;;;;9.90;1.00;;;;;;5012069;28;19921;-80
2023/01/03 15:30:44;;;;;;;;;;;9.80;1.00;;;;;;5027058;28;19974;-80
2023/01/03 15:33:23;;;;;;;;;;;9.80;1.00;;;;;;5013070;28;20000;-80
2023/01/03 15:35:50;;;;;;;;;;;9.70;1.00;;;;;;5010339;28;20332;-74
2023/01/03 15:38:50;;;;;;;;;;;9.70;1.00;;;;;;5005706;28;19924;-74
2023/01/03 15:43:18;;;;;;;;;;;9.60;1.00;;;;;;4988311;28;20329;-74
2023/01/03 15:44:07;;;;;;;;;;;9.50;1.00;;;;;;4984754;28;19945;-74
2023/01/03 15:46:40;;;;;;;;;;;9.40;1.00;;;;;;4978335;28;19920;-77
2023/01/03 15:49:06;;;;;;;;;;;9.40;1.00;;;;;;4958546;28;19914;-81
2023/01/03 15:51:42;;;;;;;;;;;9.40;1.00;;;;;;4979081;28;19915;-79
2023/01/03 16:00:20;;;;;;;;;;;9.30;1.00;;;;;;4976211;28;19957;-80
2023/01/03 16:03:00;;;;;;;;;;;9.10;1.00;;;;;;4973863;28;19910;-79
2023/01/03 16:05:26;;;;;;;;;;;9.00;1.00;;;;;;4988380;28;19910;-79
2023/01/03 16:08:17;;;;;;;;;;;8.90;1.00;;;;;;4986931;28;19914;-80
2023/01/03 16:10:50;;;;;;;;;;;8.90;1.00;;;;;;4977457;28;19909;-80
2023/01/03 16:13:16;;;;;;;;;;;8.80;1.00;;;;;;4982537;28;19910;-80
2023/01/03 16:15:42;;;;;;;;;;;8.80;1.00;;;;;;4987865;28;20004;-80
2023/01/03 16:18:25;;;;;;;;;;;8.80;1.00;;;;;;5034878;28;19996;-80
2023/01/03 16:20:54;;;;;;;;;;;8.70;1.00;;;;;;5046978;28;19999;-75
2023/01/03 16:23:25;;;;;;;;;;;8.60;1.00;;;;;;5043502;28;19910;-74
2023/01/03 16:25:54;;;;;;;;;;;8.50;1.00;;;;;;5051752;28;19913;-75
2023/01/03 16:28:21;;;;;;;;;;;8.50;1.00;;;;;;5052051;28;19986;-77
2023/01/03 16:30:55;;;;;;;;;;;8.30;1.00;;;;;;5040795;28;20377;-76
2023/01/03 16:33:28;;;;;;;;;;;8.20;1.00;;;;;;5036022;28;19998;-76
2023/01/03 16:36:00;;;;;;;;;;;8.10;1.00;;;;;;5033705;28;20277;-76
2023/01/03 16:38:26;;;;;;;;;;;8.00;1.00;;;;;;5056617;28;19917;-77
2023/01/03 16:40:53;;;;;;;;;;;8.00;1.00;;;;;;5051976;28;19917;-77
2023/01/03 16:43:25;;;;;;;;;;;7.90;1.00;;;;;;5040900;28;20367;-76
2023/01/03 16:45:57;;;;;;;;;;;7.80;1.00;;;;;;5053247;28;20467;-78
2023/01/03 16:48:35;;;;;;;;;;;7.80;1.00;;;;;;5040725;28;19920;-76
2023/01/03 16:51:06;;;;;;;;;;;7.70;1.00;;;;;;5042412;28;19915;-79
2023/01/03 16:53:48;;;;;;;;;;;7.60;1.00;;;;;;5039751;28;19917;-79
2023/01/03 16:56:18;;;;;;;;;;;7.50;1.00;;;;;;5062264;28;19908;-79
2023/01/03 16:58:48;;;;;;;;;;;7.50;1.00;;;;;;5041716;28;19959;-79
2023/01/03 17:01:42;;;;;;;;;;;7.40;1.00;;;;;;5034179;28;19909;-80
2023/01/03 17:04:18;;;;;;;;;;;7.40;1.00;;;;;;5046958;28;20012;-81
2023/01/03 17:06:48;;;;;;;;;;;7.30;1.00;;;;;;5037280;28;19920;-80
2023/01/03 17:09:34;;;;;;;;;;;7.30;1.00;;;;;;5047031;28;19923;-79
2023/01/03 17:12:30;;;;;;;;;;;7.20;1.00;;;;;;5040360;28;19934;-79
2023/01/03 17:14:56;;;;;;;;;;;7.20;1.00;;;;;;5035979;28;19921;-80
2023/01/03 17:17:43;;;;;;;;;;;7.10;1.00;;;;;;5051408;28;20280;-80
2023/01/03 17:20:17;;;;;;;;;;;7.00;1.00;;;;;;5035995;28;19955;-79
2023/01/03 17:22:45;;;;;;;;;;;6.90;1.00;;;;;;5037545;28;19909;-80
2023/01/03 17:25:30;;;;;;;;;;;6.90;1.00;;;;;;5031582;28;20341;-79
2023/01/03 17:28:01;;;;;;;;;;;6.80;1.00;;;;;;5045154;28;19964;-80
2023/01/03 17:30:37;;;;;;;;;;;6.80;1.00;;;;;;5042344;28;19987;-80
2023/01/03 17:33:02;;;;;;;;;;;6.80;1.00;;;;;;5033824;28;19990;-80
2023/01/03 17:35:28;;;;;;;;;;;6.70;1.00;;;;;;5038596;28;19953;-76
2023/01/03 17:37:55;;;;;;;;;;;6.70;1.00;;;;;;5043080;28;19924;-76
2023/01/03 17:40:38;;;;;;;;;;;6.60;1.00;;;;;;5049578;28;19936;-75
2023/01/03 17:43:03;;;;;;;;;;;6.60;1.00;;;;;;5034435;28;20380;-76
2023/01/03 17:51:13;;;;;;;;;;;6.30;1.00;;;;;;5040019;28;19935;-77
2023/01/03 17:53:49;;;;;;;;;;;6.20;1.00;;;;;;5047965;28;19917;-77
2023/01/03 17:56:15;;;;;;;;;;;6.10;1.00;;;;;;5046110;28;20277;-77
2023/01/03 17:58:50;;;;;;;;;;;6.10;1.90;;;;;;5034154;28;19909;-77
2023/01/03 18:01:43;;;;;;;;;;;6.10;3.10;;;;;;5038360;28;19916;-77
2023/01/03 18:04:19;;;;;;;;;;;6.10;6.40;;;;;;5033486;28;20003;-77
2023/01/03 18:06:47;;;;;;;;;;;6.00;6.60;;;;;;5039279;28;19912;-77
2023/01/03 18:09:26;;;;;;;;;;;6.00;6.30;;;;;;5033974;28;20387;-77
2023/01/03 18:12:01;;;;;;;;;;;5.90;6.40;;;;;;5038075;28;19909;-76